Terminal Aerodrome Forecast
Issued by NWS Twin Cities, MN

Home | Current Version | Previous Version | Text Only | Print | Product List | Glossary Off
Versions: 1 2 3 4 5 6 7 8 9 10 11 12 13 14 15 16 17 18 19 20 21 22 23 24 25 26

638
FTUS43 KMPX 101120
TAFMSP
TAF
KMSP 101120Z 1012/1118 03008KT P6SM SCT180
     FM101600 05005KT P6SM SCT100 OVC200
     FM102100 35005KT P6SM BKN100 OVC200
     FM110300 32004KT P6SM SCT050 OVC100
     FM110800 31004KT P6SM BKN050 OVC100=

USA.gov is the U.S. government's official web portal to all federal, state and local government web resources and services.